createdAt,value
2018-03-03T00:00:20.210Z,15.57
2018-03-03T00:02:47.749Z,17.12
2018-03-03T00:05:15.321Z,21.20
2018-03-03T00:07:42.854Z,19.40
2018-03-03T00:10:11.251Z,19.25
2018-03-03T00:12:40.511Z,16.73
2018-03-03T00:15:08.106Z,18.27
2018-03-03T00:17:36.077Z,17.05
2018-03-03T00:20:03.942Z,15.80
2018-03-03T00:22:41.397Z,17.35
2018-03-03T00:25:09.003Z,17.30
2018-03-03T00:27:36.518Z,18.23
2018-03-03T00:30:04.037Z,17.35
2018-03-03T00:32:31.580Z,17.52
2018-03-03T00:34:59.144Z,15.75
2018-03-03T00:37:27.175Z,18.75
2018-03-03T00:39:54.714Z,19.65
2018-03-03T00:42:22.707Z,18.65
2018-03-03T00:44:50.303Z,16.37
2018-03-03T00:47:17.872Z,17.25
2018-03-03T00:49:45.400Z,20.23
2018-03-03T00:52:13.935Z,16.77
2018-03-03T00:54:41.447Z,18.05
2018-03-03T00:57:09.723Z,15.90
2018-03-03T00:59:38.000Z,16.23
2018-03-03T01:02:06.291Z,16.08
2018-03-03T01:04:34.722Z,17.80
2018-03-03T01:07:02.252Z,16.12
2018-03-03T01:09:29.771Z,17.12
2018-03-03T01:11:57.302Z,15.38
2018-03-03T01:14:24.816Z,15.80
2018-03-03T01:16:52.465Z,23.45
2018-03-03T01:19:20.742Z,19.23
2018-03-03T01:21:49.222Z,17.17
2018-03-03T01:24:17.509Z,17.12
2018-03-03T01:26:45.779Z,17.00
2018-03-03T01:29:14.065Z,16.20
2018-03-03T01:31:41.578Z,18.17
2018-03-03T01:34:09.103Z,19.55
2018-03-03T01:36:36.638Z,18.85
2018-03-03T01:39:04.169Z,16.37
2018-03-03T01:41:31.695Z,17.98
2018-03-03T01:43:59.240Z,18.20
2018-03-03T01:46:26.871Z,16.98
2018-03-03T01:48:55.259Z,16.00
2018-03-03T01:51:34.726Z,18.87
2018-03-03T01:54:02.247Z,16.80
2018-03-03T01:56:30.659Z,18.20
2018-03-03T01:58:58.176Z,17.12
2018-03-03T02:01:25.727Z,16.40
2018-03-03T02:03:53.407Z,16.17
2018-03-03T02:06:21.721Z,20.62
2018-03-03T02:08:49.239Z,18.10
2018-03-03T02:11:18.496Z,18.70
2018-03-03T02:13:46.013Z,20.42
2018-03-03T02:16:14.515Z,19.20
2018-03-03T02:18:42.023Z,17.65
2018-03-03T02:21:09.582Z,17.35
2018-03-03T02:23:37.169Z,16.23
2018-03-03T02:26:10.032Z,17.27
2018-03-03T02:28:37.843Z,18.23
2018-03-03T02:31:05.468Z,17.95
2018-03-03T02:33:33.000Z,19.70
2018-03-03T02:36:00.644Z,18.95
2018-03-03T02:38:28.161Z,19.92
2018-03-03T02:40:56.451Z,19.58
2018-03-03T02:43:24.783Z,17.80
2018-03-03T02:45:52.299Z,20.52
2018-03-03T02:48:20.062Z,19.17
2018-03-03T02:50:47.695Z,18.37
2018-03-03T02:53:15.242Z,18.33
2018-03-03T02:55:42.759Z,20.08
2018-03-03T02:58:10.426Z,18.02
2018-03-03T03:00:37.947Z,17.75
2018-03-03T03:03:06.356Z,18.12
2018-03-03T03:05:34.099Z,18.70
2018-03-03T03:08:02.463Z,19.35
2018-03-03T03:10:30.791Z,18.15
2018-03-03T03:12:58.349Z,17.75
2018-03-03T03:15:25.932Z,17.42
2018-03-03T03:17:53.454Z,17.92
2018-03-03T03:20:20.972Z,19.67
2018-03-03T03:22:48.505Z,17.00
2018-03-03T03:25:16.032Z,19.08
2018-03-03T03:27:43.547Z,17.92
2018-03-03T03:30:11.201Z,21.35
2018-03-03T03:32:38.805Z,18.83
2018-03-03T03:35:07.113Z,16.77
2018-03-03T03:37:34.623Z,17.62
2018-03-03T03:40:02.212Z,19.08
2018-03-03T03:42:29.758Z,20.40
2018-03-03T03:44:58.524Z,19.65
2018-03-03T03:47:26.140Z,19.87
2018-03-03T03:49:53.689Z,20.58
2018-03-03T03:52:21.356Z,14.87
2018-03-03T03:54:48.897Z,20.05
2018-03-03T03:57:16.550Z,17.65
2018-03-03T03:59:44.884Z,19.98
2018-03-03T04:02:12.510Z,18.35
2018-03-03T04:04:40.331Z,19.00
2018-03-03T04:07:08.050Z,18.62
2018-03-03T04:09:36.528Z,19.02
2018-03-03T04:12:04.463Z,20.80
2018-03-03T04:14:33.286Z,19.83
2018-03-03T04:17:00.953Z,17.27
2018-03-03T04:19:28.655Z,18.27
2018-03-03T04:21:56.174Z,22.60
2018-03-03T04:24:23.696Z,20.58
2018-03-03T04:26:51.212Z,19.87
2018-03-03T04:29:18.729Z,21.05
2018-03-03T04:31:47.024Z,19.87
2018-03-03T04:34:14.524Z,19.50
2018-03-03T04:36:42.048Z,18.73
2018-03-03T04:39:09.603Z,21.35
2018-03-03T04:41:37.146Z,19.20
2018-03-03T04:44:05.427Z,19.73
2018-03-03T04:46:33.711Z,19.35
2018-03-03T04:49:01.350Z,21.62
2018-03-03T04:51:29.032Z,19.42
2018-03-03T04:53:57.498Z,19.65
2018-03-03T04:56:28.189Z,19.12
2018-03-03T04:58:58.532Z,19.30
2018-03-03T05:01:30.713Z,28.58
2018-03-03T05:17:31.735Z,17.60
2018-03-03T05:20:11.191Z,20.73
2018-03-03T05:36:36.603Z,25.00
2018-03-03T05:52:36.619Z,25.45
2018-03-03T05:55:10.975Z,20.73
2018-03-03T05:57:44.313Z,21.33
2018-03-03T06:00:18.474Z,23.17
2018-03-03T06:02:51.896Z,21.35
2018-03-03T06:18:47.115Z,18.90
2018-03-03T06:21:14.812Z,21.27
2018-03-03T06:23:43.162Z,22.37
2018-03-03T06:26:10.983Z,22.90
2018-03-03T06:28:39.033Z,23.90
2018-03-03T06:31:07.336Z,22.37
2018-03-03T06:33:34.856Z,21.05
2018-03-03T06:36:02.738Z,23.15
2018-03-03T06:38:31.455Z,21.65
2018-03-03T06:40:59.292Z,21.33
2018-03-03T06:43:27.600Z,21.98
2018-03-03T06:45:55.103Z,21.65
2018-03-03T06:48:22.654Z,20.92
2018-03-03T06:50:50.282Z,29.90
2018-03-03T06:53:18.119Z,27.60
2018-03-03T06:55:46.462Z,22.23
2018-03-03T06:58:14.814Z,23.83
2018-03-03T07:00:42.897Z,25.23
2018-03-03T07:06:05.932Z,22.60
2018-03-03T07:08:34.483Z,23.65
2018-03-03T07:11:02.268Z,24.05
2018-03-03T07:13:30.657Z,19.27
2018-03-03T07:15:58.570Z,20.55
2018-03-03T07:18:26.460Z,23.10
2018-03-03T07:20:54.218Z,22.65
2018-03-03T07:23:21.939Z,20.20
2018-03-03T07:25:49.667Z,31.40
2018-03-03T07:28:17.188Z,22.65
2018-03-03T07:30:44.714Z,23.50
2018-03-03T07:33:13.119Z,24.30
2018-03-03T07:35:41.088Z,24.15
2018-03-03T07:38:09.274Z,21.30
2018-03-03T07:40:36.787Z,22.80
2018-03-03T07:43:05.102Z,23.05
2018-03-03T07:45:32.612Z,24.37
2018-03-03T07:48:00.208Z,22.73
2018-03-03T07:50:28.187Z,23.05
2018-03-03T07:52:56.053Z,24.80
2018-03-03T07:55:23.778Z,27.83
2018-03-03T07:57:51.390Z,25.02
2018-03-03T08:00:18.933Z,24.17
2018-03-03T08:02:46.453Z,28.60
2018-03-03T08:05:14.013Z,25.92
2018-03-03T08:07:41.660Z,25.58
2018-03-03T08:10:09.209Z,24.58
2018-03-03T08:12:36.731Z,25.70
2018-03-03T08:15:04.266Z,24.45
2018-03-03T08:17:32.529Z,26.62
2018-03-03T08:20:00.060Z,28.12
2018-03-03T08:22:27.704Z,28.55
2018-03-03T08:24:55.266Z,26.67
2018-03-03T08:27:22.808Z,29.23
2018-03-03T08:29:50.367Z,29.00
2018-03-03T08:32:17.931Z,27.85
2018-03-03T08:34:45.487Z,31.27
2018-03-03T08:37:12.995Z,30.48
2018-03-03T08:39:40.509Z,28.12
2018-03-03T08:42:08.067Z,30.52
2018-03-03T08:44:35.624Z,30.67
2018-03-03T08:47:03.192Z,30.45
2018-03-03T08:49:30.707Z,29.27
2018-03-03T08:51:58.223Z,33.05
2018-03-03T08:54:25.739Z,31.50
2018-03-03T08:56:53.319Z,30.00
2018-03-03T08:59:20.886Z,30.37
2018-03-03T09:01:48.396Z,31.48
2018-03-03T09:04:15.906Z,31.37
2018-03-03T09:06:43.452Z,31.95
2018-03-03T09:09:11.730Z,38.75
2018-03-03T09:11:40.122Z,33.63
2018-03-03T09:14:07.696Z,34.70
2018-03-03T09:16:35.264Z,36.88
2018-03-03T09:19:02.786Z,32.83
2018-03-03T09:21:31.167Z,31.67
2018-03-03T09:23:59.463Z,32.72
2018-03-03T09:26:26.996Z,34.03
2018-03-03T09:28:55.296Z,30.95
2018-03-03T09:31:22.859Z,32.08
2018-03-03T09:33:50.444Z,33.47
2018-03-03T09:36:18.104Z,32.60
2018-03-03T09:38:45.647Z,30.95
2018-03-03T09:41:13.176Z,30.85
2018-03-03T09:43:41.628Z,33.08
2018-03-03T09:46:09.146Z,32.47
2018-03-03T09:48:36.751Z,34.22
2018-03-03T09:51:04.271Z,34.53
2018-03-03T09:53:31.854Z,32.83
2018-03-03T09:55:59.489Z,33.28
2018-03-03T09:58:27.048Z,38.33
2018-03-03T10:00:54.574Z,34.95
2018-03-03T10:03:22.103Z,33.05
2018-03-03T10:05:49.617Z,27.00
2018-03-03T10:08:17.193Z,34.53
2018-03-03T10:10:44.705Z,32.50
2018-03-03T10:13:12.312Z,32.40
2018-03-03T10:15:39.833Z,39.83
2018-03-03T10:18:07.430Z,38.88
2018-03-03T10:20:34.943Z,36.03
2018-03-03T10:23:02.471Z,31.92
2018-03-03T10:25:30.021Z,29.23
2018-03-03T10:27:57.567Z,34.25
2018-03-03T10:30:25.119Z,32.95
2018-03-03T10:32:52.658Z,33.55
2018-03-03T10:35:20.984Z,32.40
2018-03-03T10:37:48.538Z,38.00
2018-03-03T10:40:16.101Z,34.53
2018-03-03T10:42:43.644Z,31.20
2018-03-03T10:45:11.319Z,32.55
2018-03-03T10:47:38.833Z,35.65
2018-03-03T10:50:07.163Z,35.13
2018-03-03T10:52:34.695Z,35.45
2018-03-03T10:55:02.285Z,36.90
2018-03-03T10:57:29.798Z,38.15
2018-03-03T10:59:57.371Z,34.10
2018-03-03T11:02:25.739Z,40.95
2018-03-03T11:04:54.117Z,45.95
2018-03-03T11:07:22.402Z,46.35
2018-03-03T11:09:50.719Z,47.65
2018-03-03T11:12:18.266Z,37.95
2018-03-03T11:14:45.805Z,34.63
2018-03-03T11:17:14.086Z,37.30
2018-03-03T11:19:42.525Z,32.78
2018-03-03T11:22:10.157Z,34.88
2018-03-03T11:24:37.701Z,36.25
2018-03-03T11:27:05.278Z,33.55
2018-03-03T11:29:32.837Z,33.90
2018-03-03T11:32:00.375Z,32.50
2018-03-03T11:34:27.905Z,34.50
2018-03-03T11:36:56.218Z,32.75
2018-03-03T11:39:23.800Z,33.58
2018-03-03T11:41:51.337Z,34.08
2018-03-03T11:44:18.997Z,34.77
2018-03-03T11:46:47.386Z,33.87
2018-03-03T11:49:14.899Z,36.50
2018-03-03T11:51:42.508Z,46.88
2018-03-03T11:54:10.080Z,37.63
2018-03-03T11:56:37.656Z,55.83
2018-03-03T11:59:05.219Z,54.13
2018-03-03T12:01:32.780Z,41.30
2018-03-03T12:04:00.295Z,37.35
2018-03-03T12:06:27.872Z,40.65
2018-03-03T12:08:55.400Z,37.63
2018-03-03T12:11:23.731Z,37.80
2018-03-03T12:13:51.280Z,46.35
2018-03-03T12:16:18.792Z,38.58
2018-03-03T12:18:46.404Z,33.15
2018-03-03T12:21:13.927Z,32.55
2018-03-03T12:23:42.236Z,37.28
2018-03-03T12:26:09.797Z,34.28
2018-03-03T12:28:37.361Z,35.30
2018-03-03T12:31:04.902Z,35.17
2018-03-03T12:33:32.474Z,33.88
2018-03-03T12:36:00.026Z,32.92
2018-03-03T12:38:27.604Z,30.60
2018-03-03T12:40:55.227Z,33.65
2018-03-03T12:43:23.915Z,32.13
2018-03-03T12:45:52.191Z,32.92
2018-03-03T12:48:20.509Z,33.75
2018-03-03T12:50:48.093Z,32.25
2018-03-03T12:53:15.619Z,32.15
2018-03-03T12:55:43.136Z,33.97
2018-03-03T12:58:10.735Z,29.45
2018-03-03T13:00:38.303Z,31.02
2018-03-03T13:03:05.881Z,34.05
2018-03-03T13:05:33.550Z,29.65
2018-03-03T13:08:01.095Z,36.20
2018-03-03T13:10:28.610Z,33.75
2018-03-03T13:12:56.204Z,33.17
2018-03-03T13:15:23.760Z,38.83
2018-03-03T13:17:51.295Z,31.55
2018-03-03T13:20:19.598Z,35.55
2018-03-03T13:22:47.119Z,32.90
2018-03-03T13:25:14.635Z,44.03
2018-03-03T13:27:42.320Z,28.33
2018-03-03T13:30:09.938Z,31.23
2018-03-03T13:32:37.890Z,32.72
2018-03-03T13:35:06.175Z,35.88
2018-03-03T13:37:34.456Z,30.92
2018-03-03T13:40:02.729Z,34.05
2018-03-03T13:42:31.015Z,32.35
2018-03-03T13:44:58.534Z,30.88
2018-03-03T13:47:26.135Z,30.48
2018-03-03T13:49:53.665Z,29.40
2018-03-03T13:52:21.271Z,33.05
2018-03-03T13:54:48.848Z,29.87
2018-03-03T13:57:16.438Z,29.15
2018-03-03T13:59:44.121Z,32.45
2018-03-03T14:02:12.411Z,31.80
2018-03-03T14:04:40.711Z,32.08
2018-03-03T14:07:08.304Z,32.20
2018-03-03T14:09:36.045Z,35.20
2018-03-03T14:12:04.412Z,33.30
2018-03-03T14:14:31.983Z,31.35
2018-03-03T14:17:03.026Z,31.65
2018-03-03T14:19:30.661Z,30.20
2018-03-03T14:21:58.953Z,28.42
2018-03-03T14:24:26.494Z,31.35
2018-03-03T14:26:54.771Z,30.40
2018-03-03T14:29:23.056Z,29.70
2018-03-03T14:31:50.620Z,29.08
2018-03-03T14:34:18.187Z,27.30
2018-03-03T14:36:45.718Z,27.80
2018-03-03T14:39:14.018Z,27.42
2018-03-03T14:41:41.527Z,28.62
2018-03-03T14:44:09.035Z,27.33
2018-03-03T14:46:36.583Z,27.62
2018-03-03T14:49:04.872Z,27.55
2018-03-03T14:51:32.444Z,28.70
2018-03-03T14:54:00.418Z,26.55
2018-03-03T14:56:27.947Z,29.40
2018-03-03T14:58:56.256Z,26.35
2018-03-03T15:01:23.816Z,25.70
2018-03-03T15:03:51.367Z,25.25
2018-03-03T15:06:19.053Z,31.27
2018-03-03T15:08:46.571Z,26.27
2018-03-03T15:11:14.886Z,24.67
2018-03-03T15:13:42.437Z,24.17
2018-03-03T15:16:10.126Z,26.37
2018-03-03T15:18:37.656Z,26.60
2018-03-03T15:21:05.221Z,25.10
2018-03-03T15:23:32.796Z,24.58
2018-03-03T15:26:00.351Z,22.00
2018-03-03T15:28:27.892Z,23.10
2018-03-03T15:30:55.577Z,23.58
2018-03-03T15:33:23.155Z,24.33
2018-03-03T15:35:50.725Z,23.67
2018-03-03T15:38:18.300Z,22.65
2018-03-03T15:40:46.619Z,20.67
2018-03-03T15:43:15.020Z,22.95
2018-03-03T15:45:43.192Z,20.70
2018-03-03T15:48:10.848Z,22.30
2018-03-03T15:50:38.584Z,20.98
2018-03-03T15:53:06.921Z,22.62
2018-03-03T15:55:34.454Z,18.80
2018-03-03T15:58:02.016Z,21.42
2018-03-03T16:00:29.564Z,19.90
2018-03-03T16:02:57.123Z,20.65
2018-03-03T16:05:24.999Z,19.35
2018-03-03T16:07:52.521Z,20.20
2018-03-03T16:10:20.825Z,20.15
2018-03-03T16:12:48.397Z,21.60
2018-03-03T16:15:15.920Z,19.80
2018-03-03T16:17:44.215Z,16.77
2018-03-03T16:20:11.804Z,19.02
2018-03-03T16:22:39.351Z,21.40
2018-03-03T16:25:06.946Z,23.67
2018-03-03T16:27:34.480Z,18.55
2018-03-03T16:30:02.350Z,18.37
2018-03-03T16:32:29.868Z,19.58
2018-03-03T16:34:58.223Z,18.83
2018-03-03T16:37:25.766Z,18.75
2018-03-03T16:39:53.309Z,17.73
2018-03-03T16:42:20.843Z,17.80
2018-03-03T16:44:49.471Z,21.10
2018-03-03T16:47:16.984Z,17.87
2018-03-03T16:49:45.403Z,19.08
2018-03-03T16:52:12.918Z,17.23
2018-03-03T16:54:41.303Z,18.65
2018-03-03T16:57:09.586Z,17.95
2018-03-03T16:59:37.111Z,16.85
2018-03-03T17:02:04.835Z,17.55
2018-03-03T17:04:32.391Z,17.45
2018-03-03T17:07:00.022Z,18.33
2018-03-03T17:09:28.308Z,18.67
2018-03-03T17:11:56.675Z,17.70
2018-03-03T17:14:24.968Z,18.02
2018-03-03T17:16:53.273Z,18.27
2018-03-03T17:19:21.270Z,17.90
2018-03-03T17:21:48.866Z,18.02
2018-03-03T17:24:17.146Z,19.30
2018-03-03T17:26:45.959Z,17.83
2018-03-03T17:29:14.032Z,16.23
2018-03-03T17:31:42.105Z,17.83
2018-03-03T17:34:10.650Z,19.17
2018-03-03T17:36:38.477Z,19.42
2018-03-03T17:39:06.690Z,18.60
2018-03-03T17:41:34.710Z,18.10
2018-03-03T17:44:03.215Z,20.52
2018-03-03T17:46:30.742Z,23.25
2018-03-03T17:48:58.937Z,18.35
2018-03-03T17:51:26.475Z,21.58
2018-03-03T17:53:54.047Z,18.15
2018-03-03T17:56:21.568Z,20.60
2018-03-03T17:58:49.883Z,20.83
2018-03-03T18:01:17.429Z,20.65
2018-03-03T18:03:44.961Z,19.05
2018-03-03T18:06:13.276Z,20.30
2018-03-03T18:08:40.892Z,19.87
2018-03-03T18:11:08.455Z,20.73
2018-03-03T18:13:36.341Z,19.45
2018-03-03T18:16:03.855Z,17.35
2018-03-03T18:18:32.240Z,17.87
2018-03-03T18:20:59.970Z,19.85
2018-03-03T18:23:27.549Z,19.42
2018-03-03T18:25:55.114Z,20.50
2018-03-03T18:28:22.694Z,18.95
2018-03-03T18:30:50.339Z,23.50
2018-03-03T18:33:19.077Z,24.60
2018-03-03T18:35:48.504Z,20.95
2018-03-03T18:38:16.222Z,20.60
2018-03-03T18:40:43.742Z,20.90
2018-03-03T18:43:12.022Z,20.05
2018-03-03T18:45:40.376Z,19.67
2018-03-03T18:48:07.907Z,24.40
2018-03-03T18:50:36.639Z,20.62
2018-03-03T18:53:04.210Z,21.95
2018-03-03T18:55:32.102Z,21.27
2018-03-03T18:57:59.799Z,21.15
2018-03-03T19:00:28.126Z,19.95
2018-03-03T19:02:56.883Z,19.92
2018-03-03T19:05:25.567Z,18.45
2018-03-03T19:07:53.182Z,18.77
2018-03-03T19:10:21.428Z,18.90
2018-03-03T19:12:49.399Z,18.05
2018-03-03T19:15:18.389Z,19.42
2018-03-03T19:17:45.957Z,17.83
2018-03-03T19:20:14.612Z,23.17
2018-03-03T19:22:42.206Z,24.42
2018-03-03T19:25:09.772Z,22.95
2018-03-03T19:27:37.625Z,18.17
2018-03-03T19:30:06.131Z,18.95
2018-03-03T19:32:34.150Z,21.25
2018-03-03T19:35:02.160Z,18.37
2018-03-03T19:37:30.923Z,20.20
2018-03-03T19:39:58.694Z,18.83
2018-03-03T19:42:26.952Z,19.55
2018-03-03T19:44:54.687Z,19.00
2018-03-03T19:47:23.635Z,22.23
2018-03-03T19:49:52.840Z,21.37
2018-03-03T19:52:22.351Z,20.15
2018-03-03T19:54:51.039Z,18.92
2018-03-03T19:57:18.608Z,18.95
2018-03-03T19:59:46.140Z,20.42
2018-03-03T20:02:13.702Z,20.50
2018-03-03T20:04:41.255Z,18.17
2018-03-03T20:07:08.814Z,21.80
2018-03-03T20:09:37.093Z,20.20
2018-03-03T20:12:04.614Z,20.40
2018-03-03T20:14:32.130Z,18.85
2018-03-03T20:17:01.221Z,20.48
2018-03-03T20:19:28.748Z,24.30
2018-03-03T20:21:57.292Z,21.60
2018-03-03T20:24:24.934Z,22.98
2018-03-03T20:26:55.277Z,26.10
2018-03-03T20:29:25.895Z,21.98
2018-03-03T20:31:54.547Z,19.92
2018-03-03T20:34:25.039Z,20.50
2018-03-03T20:36:53.088Z,19.90
2018-03-03T20:39:21.562Z,20.00
2018-03-03T20:41:50.247Z,23.87
2018-03-03T20:44:17.910Z,20.15
2018-03-03T20:46:45.418Z,19.20
2018-03-03T20:49:13.016Z,21.90
2018-03-03T20:51:40.983Z,22.20
2018-03-03T20:54:08.485Z,22.98
2018-03-03T20:56:36.023Z,22.77
2018-03-03T20:59:03.662Z,20.98
2018-03-03T21:01:31.193Z,19.37
2018-03-03T21:03:59.498Z,25.83
2018-03-03T21:06:27.057Z,22.52
2018-03-03T21:08:56.190Z,24.12
2018-03-03T21:11:24.163Z,22.08
2018-03-03T21:13:51.683Z,19.80
2018-03-03T21:16:19.506Z,21.70
2018-03-03T21:18:47.954Z,18.40
2018-03-03T21:21:15.631Z,17.17
2018-03-03T21:23:43.483Z,20.37
2018-03-03T21:26:12.013Z,19.98
2018-03-03T21:28:43.367Z,19.33
2018-03-03T21:31:12.711Z,18.42
2018-03-03T21:33:42.302Z,21.35
2018-03-03T21:36:10.581Z,19.08
2018-03-03T21:38:39.925Z,18.80
2018-03-03T21:41:09.008Z,19.50
2018-03-03T21:43:37.650Z,19.08
2018-03-03T21:46:05.947Z,19.48
2018-03-03T21:48:33.464Z,19.60
2018-03-03T21:51:00.992Z,20.58
2018-03-03T21:53:28.524Z,20.27
2018-03-03T21:55:56.100Z,21.33
2018-03-03T21:58:23.639Z,19.87
2018-03-03T22:00:52.322Z,20.42
2018-03-03T22:03:21.121Z,18.17
2018-03-03T22:05:49.626Z,19.35
2018-03-03T22:08:18.251Z,21.12
2018-03-03T22:10:46.998Z,19.98
2018-03-03T22:13:16.153Z,21.40
2018-03-03T22:15:44.465Z,21.95
2018-03-03T22:18:12.812Z,18.92
2018-03-03T22:20:41.773Z,22.08
2018-03-03T22:23:10.181Z,18.60
2018-03-03T22:25:37.776Z,20.40
2018-03-03T22:28:05.310Z,18.23
2018-03-03T22:30:33.586Z,18.92
2018-03-03T22:33:01.862Z,20.73
2018-03-03T22:35:30.158Z,19.42
2018-03-03T22:37:59.075Z,18.17
2018-03-03T22:40:27.522Z,15.23
2018-03-03T22:42:56.389Z,19.65
2018-03-03T22:45:24.668Z,19.37
2018-03-03T22:47:52.171Z,22.10
2018-03-03T22:50:19.695Z,19.33
2018-03-03T22:52:47.358Z,22.48
2018-03-03T22:55:15.581Z,21.35
2018-03-03T22:57:43.242Z,21.42
2018-03-03T23:00:10.890Z,20.98
2018-03-03T23:02:38.447Z,20.42
2018-03-03T23:05:05.983Z,22.23
2018-03-03T23:07:34.261Z,20.35
2018-03-03T23:10:01.863Z,20.52
2018-03-03T23:12:29.406Z,21.50
2018-03-03T23:14:56.989Z,20.08
2018-03-03T23:17:25.748Z,22.42
2018-03-03T23:19:54.162Z,21.25
2018-03-03T23:22:21.713Z,22.33
2018-03-03T23:24:49.216Z,21.80
2018-03-03T23:27:16.818Z,22.80
2018-03-03T23:29:44.380Z,21.50
2018-03-03T23:32:11.949Z,22.23
2018-03-03T23:34:39.462Z,23.23
2018-03-03T23:37:07.121Z,22.42
2018-03-03T23:39:34.609Z,24.95
2018-03-03T23:42:02.886Z,23.38
2018-03-03T23:44:31.174Z,20.45
2018-03-03T23:46:58.698Z,20.45
2018-03-03T23:49:26.305Z,22.30
2018-03-03T23:51:53.869Z,29.65
2018-03-03T23:54:21.417Z,25.23
2018-03-03T23:56:48.959Z,22.20
2018-03-03T23:59:17.253Z,23.75
